Members

Active Controllers
NameCIDRatingLWSK_TWRLWOH_TWR*LWSK_APPLWSS_CTRRemarks
Filip Markoski 1096476 C1         Director
Dante Nikolovski 1262085 INS         Training Director
Dejan Jakovljevic 1227188 S3          
Mark Purpose 1291224 S2          
Jordan Townsend 1278388 S2          
Matthew Smith 1300953 S2          
Harry Fenwick 1316221 S1          
Dragi Popov 962414 S2          
Janeks Tompolskis 1280619 C1          
Ryan Wilson 1353588 S1          
Visiting Controllers
Jozef Bockay 1006429 C1          
Luca Sorbello 1103919 C1          
George Barlow 1339920 S2          
Jonas Hey 1286129 S2          
Inactive Controllers
Tarik Bercin 1253242 S2          
Marko Ivanovic 1273755 S1          
Stojanche Gjorcheski 1292114 OBS          
George Brown 920661 S1          
Jovan Jovanovski 955799 C1          
Lazar Kamcev 819474 OBS          
Kristian Suntev 943726 OBS          
Metodija Dimoski 1068277 OBS          
Nikola Nikolovski 1094671 OBS          
Teodor Spasovski 1168100 OBS          
Darko Dimitrijevski 1172755 OBS          
Daniel Avramoski 1001987 S3          
Mihajlo Stevoski 1002954 OBS          
Zharko Atkovski 1136769 OBS          
Stefan Perovski 1238593 OBS          
Kamil Brewerski 1217327 S1          
Vidan Stosic 1223710 S1          
Vlatko Spasev 1274234 OBS          
Mateja Milosevic 1298580 S1          
Nemanja Petrovic 1163253 S2          
Marko Anastasov 1279184 S1          
Gorazd Stojmirov 1308617 S1          
Teo Gerovski 1304033 S1          
* A Procedural Tower is a tower position that, in the real world, provides a non-radar approach/departure service and including aerodrome service, and is clearly listed on the local facility's website as a Procedural Tower. Control at a Procedural Tower can only be undertaken by a Tower Controller (S2) who has demonstrated the additional competencies listed in Appendix A to this policy to the satisfaction of the local facility; or any Controller rated as a TMA Controller (S3) or greater. A list of Tower Controllers who have completed the additional competencies shall be clearly listed on the Facility's website detailing the VATSIM ID and name. A Procedural Tower must login to the VATSIM Network with a Tower Facility and using the _TWR suffix. To achieve adequate radar coverage, the Controller may utilize multiple visibility points in their Controller client. A Procedural Tower

Members marked in bold are approved mentors/instructors

  Approved
  Training
  Solo

Latest weather information

[source: UHMR]
METAR
LWSK 191600Z 00000KT CAVOK 19/08 Q1017 NOSIG =
LWOH 191400Z 18002KT 9999 FEW060 21/05 Q1019 =
TAF
TAF LWSK 191430Z 1915/2015 VRB02KT CAVOK =
TAF LWOH 191430Z 1915/2015 16006KT CAVOK =

София Дървен материал цени

София Дъски цена